sensor_id;sensor_type;location;lat;lon;timestamp;temperature;humidity
67603;DHT22;54417;47.454;18.918;2023-12-29T00:02:54;-1.41;99.99
67603;DHT22;54417;47.454;18.918;2023-12-29T00:08:05;-1.35;99.99
67603;DHT22;54417;47.454;18.918;2023-12-29T00:13:14;-1.28;99.99
67603;DHT22;54417;47.454;18.918;2023-12-29T00:18:27;-1.18;99.99
67603;DHT22;54417;47.454;18.918;2023-12-29T00:23:37;-1.04;99.99
67603;DHT22;54417;47.454;18.918;2023-12-29T00:28:46;-0.99;99.99
67603;DHT22;54417;47.454;18.918;2023-12-29T00:33:55;-0.89;99.99
67603;DHT22;54417;47.454;18.918;2023-12-29T00:39:05;-0.92;99.99
67603;DHT22;54417;47.454;18.918;2023-12-29T00:44:14;-0.87;99.99
67603;DHT22;54417;47.454;18.918;2023-12-29T00:49:23;-0.82;99.99
67603;DHT22;54417;47.454;18.918;2023-12-29T00:54:33;-0.86;99.99
67603;DHT22;54417;47.454;18.918;2023-12-29T00:59:37;-0.83;99.99
67603;DHT22;54417;47.454;18.918;2023-12-29T01:04:47;-0.90;99.99
67603;DHT22;54417;47.454;18.918;2023-12-29T01:09:58;-0.89;99.99
67603;DHT22;54417;47.454;18.918;2023-12-29T01:15:08;-0.87;99.99
67603;DHT22;54417;47.454;18.918;2023-12-29T01:20:17;-0.82;99.99
67603;DHT22;54417;47.454;18.918;2023-12-29T01:25:27;-0.76;99.99
67603;DHT22;54417;47.454;18.918;2023-12-29T01:30:36;-0.70;99.99
67603;DHT22;54417;47.454;18.918;2023-12-29T01:35:40;-0.70;99.99
67603;DHT22;54417;47.454;18.918;2023-12-29T01:40:50;-0.73;99.99
67603;DHT22;54417;47.454;18.918;2023-12-29T01:45:59;-0.69;99.99
67603;DHT22;54417;47.454;18.918;2023-12-29T01:51:08;-0.68;99.99
67603;DHT22;54417;47.454;18.918;2023-12-29T01:56:14;-0.72;99.99
67603;DHT22;54417;47.454;18.918;2023-12-29T02:01:23;-0.66;99.99
67603;DHT22;54417;47.454;18.918;2023-12-29T02:06:33;-0.65;99.99
67603;DHT22;54417;47.454;18.918;2023-12-29T02:11:39;-0.58;99.99
67603;DHT22;54417;47.454;18.918;2023-12-29T02:16:56;-0.51;99.99
67603;DHT22;54417;47.454;18.918;2023-12-29T02:22:08;-0.39;99.99
67603;DHT22;54417;47.454;18.918;2023-12-29T02:27:28;-0.41;99.99
67603;DHT22;54417;47.454;18.918;2023-12-29T02:32:43;-0.39;99.99
67603;DHT22;54417;47.454;18.918;2023-12-29T02:37:49;-0.47;99.99
67603;DHT22;54417;47.454;18.918;2023-12-29T02:42:59;-0.59;99.99
67603;DHT22;54417;47.454;18.918;2023-12-29T02:48:03;-0.55;99.99
67603;DHT22;54417;47.454;18.918;2023-12-29T02:53:08;-0.54;99.99
67603;DHT22;54417;47.454;18.918;2023-12-29T02:58:18;-0.41;99.99
67603;DHT22;54417;47.454;18.918;2023-12-29T03:03:23;-0.52;99.99
67603;DHT22;54417;47.454;18.918;2023-12-29T03:08:32;-0.48;99.99
67603;DHT22;54417;47.454;18.918;2023-12-29T03:13:42;-0.48;99.99
67603;DHT22;54417;47.454;18.918;2023-12-29T03:18:51;-0.44;99.99
67603;DHT22;54417;47.454;18.918;2023-12-29T03:24:00;-0.44;99.99
67603;DHT22;54417;47.454;18.918;2023-12-29T03:29:05;-0.45;99.99
67603;DHT22;54417;47.454;18.918;2023-12-29T03:34:13;-0.47;99.99
67603;DHT22;54417;47.454;18.918;2023-12-29T03:39:17;-0.41;99.99
67603;DHT22;54417;47.454;18.918;2023-12-29T03:44:27;-0.45;99.99
67603;DHT22;54417;47.454;18.918;2023-12-29T03:49:36;-0.51;99.99
67603;DHT22;54417;47.454;18.918;2023-12-29T03:54:45;-0.55;99.99
67603;DHT22;54417;47.454;18.918;2023-12-29T03:59:51;-0.69;99.99
67603;DHT22;54417;47.454;18.918;2023-12-29T04:05:00;-0.70;99.99
67603;DHT22;54417;47.454;18.918;2023-12-29T04:10:10;-0.73;99.99
67603;DHT22;54417;47.454;18.918;2023-12-29T04:15:20;-0.80;99.99
67603;DHT22;54417;47.454;18.918;2023-12-29T04:20:29;-0.82;99.99
67603;DHT22;54417;47.454;18.918;2023-12-29T04:25:38;-0.90;99.99
67603;DHT22;54417;47.454;18.918;2023-12-29T04:30:48;-0.89;99.99
67603;DHT22;54417;47.454;18.918;2023-12-29T04:35:57;-0.95;99.99
67603;DHT22;54417;47.454;18.918;2023-12-29T04:41:05;-0.92;99.99
67603;DHT22;54417;47.454;18.918;2023-12-29T04:46:16;-0.97;99.99
67603;DHT22;54417;47.454;18.918;2023-12-29T04:51:25;-1.08;99.99
67603;DHT22;54417;47.454;18.918;2023-12-29T04:56:33;-1.17;99.99
67603;DHT22;54417;47.454;18.918;2023-12-29T05:01:38;-1.27;99.99
67603;DHT22;54417;47.454;18.918;2023-12-29T05:06:47;-1.10;99.99
67603;DHT22;54417;47.454;18.918;2023-12-29T05:11:51;-1.08;99.99
67603;DHT22;54417;47.454;18.918;2023-12-29T05:17:02;-1.03;99.99
67603;DHT22;54417;47.454;18.918;2023-12-29T05:22:11;-1.08;99.99
67603;DHT22;54417;47.454;18.918;2023-12-29T05:27:23;-1.11;99.99
67603;DHT22;54417;47.454;18.918;2023-12-29T05:32:28;-1.16;99.99
67603;DHT22;54417;47.454;18.918;2023-12-29T05:37:37;-1.17;99.99
67603;DHT22;54417;47.454;18.918;2023-12-29T05:42:40;-1.26;99.99
67603;DHT22;54417;47.454;18.918;2023-12-29T05:47:51;-1.24;99.99
67603;DHT22;54417;47.454;18.918;2023-12-29T05:52:59;-1.26;99.99
67603;DHT22;54417;47.454;18.918;2023-12-29T05:58:08;-1.33;99.99
67603;DHT22;54417;47.454;18.918;2023-12-29T06:03:19;-1.34;99.99
67603;DHT22;54417;47.454;18.918;2023-12-29T06:08:27;-1.47;99.99
67603;DHT22;54417;47.454;18.918;2023-12-29T06:13:36;-1.51;99.99
67603;DHT22;54417;47.454;18.918;2023-12-29T06:18:47;-1.43;99.99
67603;DHT22;54417;47.454;18.918;2023-12-29T06:23:51;-1.40;99.99
67603;DHT22;54417;47.454;18.918;2023-12-29T06:29:00;-1.51;99.99
67603;DHT22;54417;47.454;18.918;2023-12-29T06:34:10;-1.59;99.99
67603;DHT22;54417;47.454;18.918;2023-12-29T06:39:19;-1.58;99.99
67603;DHT22;54417;47.454;18.918;2023-12-29T06:44:28;-1.41;99.99
67603;DHT22;54417;47.454;18.918;2023-12-29T06:49:38;-1.26;99.99
67603;DHT22;54417;47.454;18.918;2023-12-29T06:54:48;-1.04;99.99
67603;DHT22;54417;47.454;18.918;2023-12-29T06:59:58;-0.89;99.99
67603;DHT22;54417;47.454;18.918;2023-12-29T07:05:08;-0.75;99.99
67603;DHT22;54417;47.454;18.918;2023-12-29T07:10:17;-0.64;99.99
67603;DHT22;54417;47.454;18.918;2023-12-29T07:15:26;-0.49;99.99
67603;DHT22;54417;47.454;18.918;2023-12-29T07:20:36;-0.20;99.99
67603;DHT22;54417;47.454;18.918;2023-12-29T07:25:46;-0.04;99.99
67603;DHT22;54417;47.454;18.918;2023-12-29T07:30:50;-0.03;99.99
67603;DHT22;54417;47.454;18.918;2023-12-29T07:36:01;-0.11;99.99
67603;DHT22;54417;47.454;18.918;2023-12-29T07:41:10;-0.06;99.99
67603;DHT22;54417;47.454;18.918;2023-12-29T07:46:24;-0.06;99.99
67603;DHT22;54417;47.454;18.918;2023-12-29T07:51:39;0.09;99.99
67603;DHT22;54417;47.454;18.918;2023-12-29T07:56:48;0.00;99.99
67603;DHT22;54417;47.454;18.918;2023-12-29T08:01:58;0.03;99.99
67603;DHT22;54417;47.454;18.918;2023-12-29T08:07:08;0.06;99.99
67603;DHT22;54417;47.454;18.918;2023-12-29T08:12:17;0.14;99.99
67603;DHT22;54417;47.454;18.918;2023-12-29T08:17:26;0.17;99.99
67603;DHT22;54417;47.454;18.918;2023-12-29T08:22:37;0.31;99.99
67603;DHT22;54417;47.454;18.918;2023-12-29T08:27:45;0.57;99.99
67603;DHT22;54417;47.454;18.918;2023-12-29T08:32:54;0.76;99.99
67603;DHT22;54417;47.454;18.918;2023-12-29T08:38:05;0.95;99.99
67603;DHT22;54417;47.454;18.918;2023-12-29T08:43:13;1.16;99.99
67603;DHT22;54417;47.454;18.918;2023-12-29T08:48:19;1.30;99.96
67603;DHT22;54417;47.454;18.918;2023-12-29T08:53:30;1.50;99.99
67603;DHT22;54417;47.454;18.918;2023-12-29T08:58:42;1.78;99.93
67603;DHT22;54417;47.454;18.918;2023-12-29T09:03:51;2.10;99.99
67603;DHT22;54417;47.454;18.918;2023-12-29T09:09:01;2.38;99.70
67603;DHT22;54417;47.454;18.918;2023-12-29T09:14:05;2.68;99.79
67603;DHT22;54417;47.454;18.918;2023-12-29T09:19:09;3.01;99.58
67603;DHT22;54417;47.454;18.918;2023-12-29T09:24:22;3.37;99.34
67603;DHT22;54417;47.454;18.918;2023-12-29T09:29:26;3.63;99.35
67603;DHT22;54417;47.454;18.918;2023-12-29T09:34:34;4.05;99.30
67603;DHT22;54417;47.454;18.918;2023-12-29T09:39:45;4.46;98.07
67603;DHT22;54417;47.454;18.918;2023-12-29T09:44:56;4.70;97.45
67603;DHT22;54417;47.454;18.918;2023-12-29T09:50:05;4.92;97.57
67603;DHT22;54417;47.454;18.918;2023-12-29T09:55:12;5.21;97.35
67603;DHT22;54417;47.454;18.918;2023-12-29T10:00:25;5.46;96.61
67603;DHT22;54417;47.454;18.918;2023-12-29T10:05:35;5.77;96.54
67603;DHT22;54417;47.454;18.918;2023-12-29T10:10:45;5.91;96.37
67603;DHT22;54417;47.454;18.918;2023-12-29T10:16:04;6.13;95.61
67603;DHT22;54417;47.454;18.918;2023-12-29T10:21:24;6.38;94.54
67603;DHT22;54417;47.454;18.918;2023-12-29T10:26:32;6.50;94.74
67603;DHT22;54417;47.454;18.918;2023-12-29T10:31:41;6.72;93.76
67603;DHT22;54417;47.454;18.918;2023-12-29T10:36:52;6.79;93.77
67603;DHT22;54417;47.454;18.918;2023-12-29T10:42:07;6.94;93.73
67603;DHT22;54417;47.454;18.918;2023-12-29T10:47:16;7.01;93.59
67603;DHT22;54417;47.454;18.918;2023-12-29T10:52:23;7.18;92.82
67603;DHT22;54417;47.454;18.918;2023-12-29T10:57:35;7.25;92.50
67603;DHT22;54417;47.454;18.918;2023-12-29T11:02:53;7.42;91.91
67603;DHT22;54417;47.454;18.918;2023-12-29T11:08:14;7.54;91.60
67603;DHT22;54417;47.454;18.918;2023-12-29T11:13:26;7.79;89.34
67603;DHT22;54417;47.454;18.918;2023-12-29T11:18:36;8.00;88.98
67603;DHT22;54417;47.454;18.918;2023-12-29T11:23:41;8.14;88.85
67603;DHT22;54417;47.454;18.918;2023-12-29T11:28:53;8.14;88.47
67603;DHT22;54417;47.454;18.918;2023-12-29T11:34:02;8.19;87.94
67603;DHT22;54417;47.454;18.918;2023-12-29T11:39:17;8.14;88.74
67603;DHT22;54417;47.454;18.918;2023-12-29T11:44:30;8.17;87.68
67603;DHT22;54417;47.454;18.918;2023-12-29T11:50:00;8.20;87.82
67603;DHT22;54417;47.454;18.918;2023-12-29T11:55:10;8.24;86.20
67603;DHT22;54417;47.454;18.918;2023-12-29T12:00:21;8.26;86.02
67603;DHT22;54417;47.454;18.918;2023-12-29T12:05:49;8.16;87.48
67603;DHT22;54417;47.454;18.918;2023-12-29T12:16:50;8.26;87.44
67603;DHT22;54417;47.454;18.918;2023-12-29T12:22:02;8.41;86.86
67603;DHT22;54417;47.454;18.918;2023-12-29T12:27:11;8.68;86.03
67603;DHT22;54417;47.454;18.918;2023-12-29T12:32:21;9.03;84.57
67603;DHT22;54417;47.454;18.918;2023-12-29T12:37:30;9.33;83.64
67603;DHT22;54417;47.454;18.918;2023-12-29T12:42:38;9.52;82.77
67603;DHT22;54417;47.454;18.918;2023-12-29T12:47:53;9.62;81.54
67603;DHT22;54417;47.454;18.918;2023-12-29T12:53:02;9.71;82.39
67603;DHT22;54417;47.454;18.918;2023-12-29T12:58:17;9.94;81.37
67603;DHT22;54417;47.454;18.918;2023-12-29T13:03:27;10.08;79.71
67603;DHT22;54417;47.454;18.918;2023-12-29T13:08:36;10.05;79.06
67603;DHT22;54417;47.454;18.918;2023-12-29T13:13:50;9.68;79.87
67603;DHT22;54417;47.454;18.918;2023-12-29T13:19:19;9.36;80.28
67603;DHT22;54417;47.454;18.918;2023-12-29T13:24:28;8.88;81.68
67603;DHT22;54417;47.454;18.918;2023-12-29T13:29:38;8.48;83.04
67603;DHT22;54417;47.454;18.918;2023-12-29T13:34:53;8.20;83.55
67603;DHT22;54417;47.454;18.918;2023-12-29T13:40:10;8.06;84.12
67603;DHT22;54417;47.454;18.918;2023-12-29T13:45:20;7.97;83.99
67603;DHT22;54417;47.454;18.918;2023-12-29T13:50:26;7.75;84.73
67603;DHT22;54417;47.454;18.918;2023-12-29T13:55:30;7.66;85.20
67603;DHT22;54417;47.454;18.918;2023-12-29T14:00:40;7.56;85.36
67603;DHT22;54417;47.454;18.918;2023-12-29T14:05:48;7.36;86.29
67603;DHT22;54417;47.454;18.918;2023-12-29T14:11:00;7.34;86.27
67603;DHT22;54417;47.454;18.918;2023-12-29T14:16:07;7.27;86.83
67603;DHT22;54417;47.454;18.918;2023-12-29T14:21:29;7.18;87.41
67603;DHT22;54417;47.454;18.918;2023-12-29T14:26:40;7.00;87.72
67603;DHT22;54417;47.454;18.918;2023-12-29T14:31:51;6.82;88.55
67603;DHT22;54417;47.454;18.918;2023-12-29T14:37:01;6.49;89.54
67603;DHT22;54417;47.454;18.918;2023-12-29T14:42:05;6.27;91.07
67603;DHT22;54417;47.454;18.918;2023-12-29T14:47:15;6.28;91.51
67603;DHT22;54417;47.454;18.918;2023-12-29T14:52:26;6.08;91.45
67603;DHT22;54417;47.454;18.918;2023-12-29T14:57:32;5.90;92.72
67603;DHT22;54417;47.454;18.918;2023-12-29T15:02:42;5.83;92.72
67603;DHT22;54417;47.454;18.918;2023-12-29T15:07:53;5.53;93.17
67603;DHT22;54417;47.454;18.918;2023-12-29T15:13:01;5.29;93.73
67603;DHT22;54417;47.454;18.918;2023-12-29T15:18:11;5.21;95.30
67603;DHT22;54417;47.454;18.918;2023-12-29T15:23:18;5.07;94.82
67603;DHT22;54417;47.454;18.918;2023-12-29T15:28:26;4.83;95.76
67603;DHT22;54417;47.454;18.918;2023-12-29T15:33:35;4.56;95.42
67603;DHT22;54417;47.454;18.918;2023-12-29T15:38:46;4.22;95.91
67603;DHT22;54417;47.454;18.918;2023-12-29T15:43:49;4.09;96.48
67603;DHT22;54417;47.454;18.918;2023-12-29T15:48:58;3.87;97.38
67603;DHT22;54417;47.454;18.918;2023-12-29T15:54:11;3.75;97.45
67603;DHT22;54417;47.454;18.918;2023-12-29T15:59:20;3.74;98.67
67603;DHT22;54417;47.454;18.918;2023-12-29T16:04:29;3.73;98.28
67603;DHT22;54417;47.454;18.918;2023-12-29T16:09:40;3.80;99.68
67603;DHT22;54417;47.454;18.918;2023-12-29T16:14:49;3.92;98.38
67603;DHT22;54417;47.454;18.918;2023-12-29T16:19:57;3.78;98.08
67603;DHT22;54417;47.454;18.918;2023-12-29T16:25:08;3.60;98.36
67603;DHT22;54417;47.454;18.918;2023-12-29T16:30:13;3.43;97.91
67603;DHT22;54417;47.454;18.918;2023-12-29T16:35:17;3.25;97.91
67603;DHT22;54417;47.454;18.918;2023-12-29T16:40:27;3.08;97.85
67603;DHT22;54417;47.454;18.918;2023-12-29T16:45:34;2.89;98.13
67603;DHT22;54417;47.454;18.918;2023-12-29T16:50:43;2.70;98.16
67603;DHT22;54417;47.454;18.918;2023-12-29T16:55:53;2.58;98.78
67603;DHT22;54417;47.454;18.918;2023-12-29T17:01:03;2.60;99.00
67603;DHT22;54417;47.454;18.918;2023-12-29T17:06:12;2.41;98.89
67603;DHT22;54417;47.454;18.918;2023-12-29T17:11:22;2.46;99.99
67603;DHT22;54417;47.454;18.918;2023-12-29T17:16:31;2.73;99.99
67603;DHT22;54417;47.454;18.918;2023-12-29T17:21:40;2.75;99.99
67603;DHT22;54417;47.454;18.918;2023-12-29T17:26:50;2.78;99.99
67603;DHT22;54417;47.454;18.918;2023-12-29T17:31:54;2.85;99.99
67603;DHT22;54417;47.454;18.918;2023-12-29T17:37:03;2.55;99.99
67603;DHT22;54417;47.454;18.918;2023-12-29T17:42:13;2.57;99.99
67603;DHT22;54417;47.454;18.918;2023-12-29T17:47:21;2.64;99.99
67603;DHT22;54417;47.454;18.918;2023-12-29T17:52:31;2.51;99.99
67603;DHT22;54417;47.454;18.918;2023-12-29T17:57:41;2.37;99.99
67603;DHT22;54417;47.454;18.918;2023-12-29T18:02:49;2.17;99.98
67603;DHT22;54417;47.454;18.918;2023-12-29T18:07:58;1.98;99.44
67603;DHT22;54417;47.454;18.918;2023-12-29T18:13:09;1.78;99.99
67603;DHT22;54417;47.454;18.918;2023-12-29T18:18:20;1.74;99.99
67603;DHT22;54417;47.454;18.918;2023-12-29T18:23:29;1.58;99.99
67603;DHT22;54417;47.454;18.918;2023-12-29T18:28:40;1.68;99.99
67603;DHT22;54417;47.454;18.918;2023-12-29T18:33:50;1.65;99.99
67603;DHT22;54417;47.454;18.918;2023-12-29T18:38:59;1.71;99.99
67603;DHT22;54417;47.454;18.918;2023-12-29T18:44:05;1.72;99.99
67603;DHT22;54417;47.454;18.918;2023-12-29T18:49:14;1.75;99.99
67603;DHT22;54417;47.454;18.918;2023-12-29T18:54:19;1.58;99.99
67603;DHT22;54417;47.454;18.918;2023-12-29T18:59:29;1.46;99.99
67603;DHT22;54417;47.454;18.918;2023-12-29T19:04:38;1.30;99.99
67603;DHT22;54417;47.454;18.918;2023-12-29T19:09:47;1.13;99.99
67603;DHT22;54417;47.454;18.918;2023-12-29T19:14:57;1.09;99.99
67603;DHT22;54417;47.454;18.918;2023-12-29T19:20:07;0.97;99.99
67603;DHT22;54417;47.454;18.918;2023-12-29T19:25:16;0.93;99.99
67603;DHT22;54417;47.454;18.918;2023-12-29T19:30:27;0.83;99.99
67603;DHT22;54417;47.454;18.918;2023-12-29T19:35:36;0.75;99.99
67603;DHT22;54417;47.454;18.918;2023-12-29T19:40:44;0.68;99.99
67603;DHT22;54417;47.454;18.918;2023-12-29T19:45:55;0.83;99.99
67603;DHT22;54417;47.454;18.918;2023-12-29T19:50:59;1.06;99.99
67603;DHT22;54417;47.454;18.918;2023-12-29T19:56:07;1.01;99.99
67603;DHT22;54417;47.454;18.918;2023-12-29T20:01:18;0.88;99.99
67603;DHT22;54417;47.454;18.918;2023-12-29T20:06:28;0.72;99.99
67603;DHT22;54417;47.454;18.918;2023-12-29T20:11:40;0.62;99.99
67603;DHT22;54417;47.454;18.918;2023-12-29T20:16:51;0.57;99.99
67603;DHT22;54417;47.454;18.918;2023-12-29T20:21:55;0.44;99.99
67603;DHT22;54417;47.454;18.918;2023-12-29T20:27:04;0.32;99.99
67603;DHT22;54417;47.454;18.918;2023-12-29T20:32:14;0.24;99.99
67603;DHT22;54417;47.454;18.918;2023-12-29T20:37:23;0.15;99.99
67603;DHT22;54417;47.454;18.918;2023-12-29T20:42:32;0.32;99.99
67603;DHT22;54417;47.454;18.918;2023-12-29T20:47:43;0.30;99.99
67603;DHT22;54417;47.454;18.918;2023-12-29T20:52:47;0.11;99.99
67603;DHT22;54417;47.454;18.918;2023-12-29T20:57:56;0.11;99.99
67603;DHT22;54417;47.454;18.918;2023-12-29T21:03:06;0.00;99.99
67603;DHT22;54417;47.454;18.918;2023-12-29T21:08:15;0.01;99.99
67603;DHT22;54417;47.454;18.918;2023-12-29T21:13:24;-0.10;99.99
67603;DHT22;54417;47.454;18.918;2023-12-29T21:18:36;-0.11;99.99
67603;DHT22;54417;47.454;18.918;2023-12-29T21:23:40;-0.08;99.99
67603;DHT22;54417;47.454;18.918;2023-12-29T21:28:50;-0.10;99.99
67603;DHT22;54417;47.454;18.918;2023-12-29T21:34:01;-0.08;99.99
67603;DHT22;54417;47.454;18.918;2023-12-29T21:39:06;-0.06;99.99
67603;DHT22;54417;47.454;18.918;2023-12-29T21:44:14;-0.11;99.99
67603;DHT22;54417;47.454;18.918;2023-12-29T21:49:20;-0.10;99.99
67603;DHT22;54417;47.454;18.918;2023-12-29T21:54:29;-0.21;99.99
67603;DHT22;54417;47.454;18.918;2023-12-29T21:59:33;-0.17;99.99
67603;DHT22;54417;47.454;18.918;2023-12-29T22:04:43;-0.24;99.99
67603;DHT22;54417;47.454;18.918;2023-12-29T22:09:53;-0.29;99.99
67603;DHT22;54417;47.454;18.918;2023-12-29T22:15:02;-0.29;99.99
67603;DHT22;54417;47.454;18.918;2023-12-29T22:20:09;-0.32;99.99
67603;DHT22;54417;47.454;18.918;2023-12-29T22:25:18;-0.35;99.99
67603;DHT22;54417;47.454;18.918;2023-12-29T22:30:27;-0.21;99.99
67603;DHT22;54417;47.454;18.918;2023-12-29T22:35:32;-0.34;99.99
67603;DHT22;54417;47.454;18.918;2023-12-29T22:40:41;-0.45;99.99
67603;DHT22;54417;47.454;18.918;2023-12-29T22:45:51;-0.58;99.99
67603;DHT22;54417;47.454;18.918;2023-12-29T22:51:01;-0.59;99.99
67603;DHT22;54417;47.454;18.918;2023-12-29T22:56:12;-0.68;99.99
67603;DHT22;54417;47.454;18.918;2023-12-29T23:01:16;-0.73;99.99
67603;DHT22;54417;47.454;18.918;2023-12-29T23:06:26;-0.80;99.99
67603;DHT22;54417;47.454;18.918;2023-12-29T23:11:35;-0.82;99.99
67603;DHT22;54417;47.454;18.918;2023-12-29T23:16:44;-0.77;99.99
67603;DHT22;54417;47.454;18.918;2023-12-29T23:21:54;-0.82;99.99
67603;DHT22;54417;47.454;18.918;2023-12-29T23:27:04;-0.89;99.99
67603;DHT22;54417;47.454;18.918;2023-12-29T23:32:12;-0.90;99.99
67603;DHT22;54417;47.454;18.918;2023-12-29T23:37:28;-0.86;99.99
67603;DHT22;54417;47.454;18.918;2023-12-29T23:42:37;-0.86;99.99
67603;DHT22;54417;47.454;18.918;2023-12-29T23:47:45;-0.92;99.99
67603;DHT22;54417;47.454;18.918;2023-12-29T23:52:56;-0.97;99.99
67603;DHT22;54417;47.454;18.918;2023-12-29T23:58:07;-0.89;99.99
